createdAt,value
2023-05-07T00:01:30.660Z,19.00
2023-05-07T00:06:33.385Z,19.90
2023-05-07T00:11:37.103Z,20.00
2023-05-07T00:16:38.820Z,20.08
2023-05-07T00:21:40.286Z,18.75
2023-05-07T00:26:41.694Z,20.83
2023-05-07T00:31:44.503Z,21.10
2023-05-07T00:36:46.424Z,16.38
2023-05-07T00:41:48.336Z,17.27
2023-05-07T00:46:50.946Z,16.35
2023-05-07T00:51:52.444Z,19.63
2023-05-07T00:56:55.037Z,18.60
2023-05-07T01:01:56.468Z,16.52
2023-05-07T01:06:59.255Z,18.35
2023-05-07T01:12:01.440Z,16.17
2023-05-07T01:17:02.988Z,16.45
2023-05-07T01:22:09.689Z,15.77
2023-05-07T01:27:11.310Z,15.00
2023-05-07T01:32:13.364Z,16.40
2023-05-07T01:37:15.404Z,14.75
2023-05-07T01:42:16.782Z,18.55
2023-05-07T01:47:18.469Z,16.40
2023-05-07T01:52:20.123Z,14.88
2023-05-07T01:57:21.880Z,13.00
2023-05-07T02:02:23.480Z,12.48
2023-05-07T02:07:25.763Z,11.52
2023-05-07T02:12:27.265Z,12.70
2023-05-07T02:17:28.734Z,14.35
2023-05-07T02:22:30.155Z,11.48
2023-05-07T02:27:31.599Z,13.45
2023-05-07T02:32:33.105Z,10.63
2023-05-07T02:37:34.627Z,11.25
2023-05-07T02:42:36.219Z,9.95
2023-05-07T02:47:37.730Z,10.02
2023-05-07T02:52:40.689Z,11.30
2023-05-07T02:57:42.197Z,14.15
2023-05-07T03:02:43.637Z,11.50
2023-05-07T03:07:47.156Z,11.10
2023-05-07T03:12:48.647Z,12.55
2023-05-07T03:17:50.085Z,12.25
2023-05-07T03:22:51.560Z,11.70
2023-05-07T03:27:52.998Z,11.27
2023-05-07T03:32:54.421Z,13.23
2023-05-07T03:37:56.648Z,13.73
2023-05-07T03:42:58.082Z,12.52
2023-05-07T03:47:59.505Z,11.98
2023-05-07T03:53:01.041Z,11.68
2023-05-07T03:58:02.472Z,12.35
2023-05-07T04:03:05.570Z,13.70
2023-05-07T04:08:07.124Z,12.80
2023-05-07T04:13:08.606Z,13.73
2023-05-07T04:18:10.063Z,14.15
2023-05-07T04:23:11.738Z,15.00
2023-05-07T04:28:13.537Z,19.52
2023-05-07T04:33:17.073Z,20.45
2023-05-07T04:38:19.627Z,22.65
2023-05-07T04:43:21.649Z,23.77
2023-05-07T04:48:23.077Z,22.00
2023-05-07T04:53:24.686Z,21.67
2023-05-07T04:58:26.125Z,20.92
2023-05-07T05:03:27.675Z,23.67
2023-05-07T05:08:33.043Z,22.45
2023-05-07T05:13:34.433Z,22.00
2023-05-07T05:18:35.950Z,21.65
2023-05-07T05:23:37.429Z,20.77
2023-05-07T05:28:38.849Z,21.08
2023-05-07T05:33:41.004Z,19.88
2023-05-07T05:38:42.458Z,19.45
2023-05-07T05:43:43.866Z,20.58
2023-05-07T05:48:45.275Z,22.35
2023-05-07T05:53:48.255Z,20.90
2023-05-07T05:58:49.713Z,20.88
2023-05-07T06:03:51.138Z,23.33
2023-05-07T06:08:52.565Z,24.75
2023-05-07T06:13:54.016Z,23.40
2023-05-07T06:18:55.454Z,23.38
2023-05-07T06:23:56.890Z,22.92
2023-05-07T06:28:58.312Z,25.13
2023-05-07T06:34:00.201Z,25.75
2023-05-07T06:39:01.627Z,25.25
2023-05-07T06:44:03.737Z,25.13
2023-05-07T06:49:05.258Z,23.67
2023-05-07T06:54:06.777Z,24.85
2023-05-07T06:59:08.270Z,23.88
2023-05-07T07:04:09.740Z,26.80
2023-05-07T07:09:11.348Z,24.67
2023-05-07T07:14:12.772Z,24.13
2023-05-07T07:19:16.780Z,24.17
2023-05-07T07:24:22.101Z,26.67
2023-05-07T07:29:23.722Z,24.75
2023-05-07T07:34:25.276Z,28.35
2023-05-07T07:39:26.737Z,26.73
2023-05-07T07:44:29.213Z,29.08
2023-05-07T07:49:30.756Z,23.65
2023-05-07T07:54:32.304Z,25.88
2023-05-07T07:59:33.804Z,28.52
2023-05-07T08:04:35.700Z,24.58
2023-05-07T08:09:40.609Z,24.33
2023-05-07T08:14:42.105Z,27.88
2023-05-07T08:19:44.528Z,25.75
2023-05-07T08:24:46.139Z,22.73
2023-05-07T08:29:49.084Z,28.20
2023-05-07T08:34:50.616Z,29.42
2023-05-07T08:39:52.030Z,29.23
2023-05-07T08:44:56.681Z,26.98
2023-05-07T08:49:58.755Z,27.38
2023-05-07T08:55:01.335Z,28.17
2023-05-07T09:00:03.996Z,27.15
2023-05-07T09:05:05.711Z,28.02
2023-05-07T09:10:07.676Z,23.75
2023-05-07T09:15:09.756Z,29.52
2023-05-07T09:20:11.567Z,27.77
2023-05-07T09:25:13.431Z,29.38
2023-05-07T09:30:15.166Z,25.33
2023-05-07T09:35:22.891Z,26.52
2023-05-07T09:40:25.180Z,26.35
2023-05-07T09:45:27.153Z,31.70
2023-05-07T09:50:29.599Z,27.98
2023-05-07T09:55:31.665Z,31.80
2023-05-07T10:00:35.035Z,26.90
2023-05-07T10:05:37.012Z,26.27
2023-05-07T10:10:38.972Z,28.02
2023-05-07T10:15:40.600Z,28.75
2023-05-07T10:20:45.038Z,26.73
2023-05-07T10:25:46.504Z,29.10
2023-05-07T10:30:57.226Z,22.05
2023-05-07T10:36:00.265Z,30.73
2023-05-07T10:41:02.210Z,26.95
2023-05-07T10:46:15.679Z,27.55
2023-05-07T10:51:21.745Z,25.20
2023-05-07T10:56:23.181Z,29.35
2023-05-07T11:01:43.186Z,30.38
2023-05-07T11:07:04.667Z,25.42
2023-05-07T11:12:06.192Z,28.15
2023-05-07T11:17:08.003Z,29.35
2023-05-07T11:22:29.373Z,28.02
2023-05-07T11:27:31.064Z,24.58
2023-05-07T11:32:33.129Z,24.27
2023-05-07T11:37:34.645Z,25.55
2023-05-07T11:42:38.502Z,27.10
2023-05-07T11:47:42.670Z,25.85
2023-05-07T11:52:51.251Z,25.20
2023-05-07T11:57:52.951Z,23.10
2023-05-07T12:02:54.547Z,25.48
2023-05-07T12:07:58.917Z,26.83
2023-05-07T12:13:00.430Z,24.90
2023-05-07T12:18:02.232Z,23.23
2023-05-07T12:23:04.089Z,23.80
2023-05-07T12:28:08.785Z,23.90
2023-05-07T12:33:10.740Z,25.30
2023-05-07T12:38:13.236Z,25.35
2023-05-07T12:43:20.962Z,20.38
2023-05-07T12:48:22.747Z,22.48
2023-05-07T12:53:25.639Z,22.02
2023-05-07T12:58:31.227Z,23.42
2023-05-07T13:03:33.615Z,22.58
2023-05-07T13:08:37.303Z,22.48
2023-05-07T13:13:39.797Z,22.65
2023-05-07T13:18:41.893Z,22.17
2023-05-07T13:23:43.570Z,21.80
2023-05-07T13:28:45.132Z,22.17
2023-05-07T13:33:46.574Z,23.13
2023-05-07T13:38:48.104Z,24.80
2023-05-07T13:43:49.637Z,23.85
2023-05-07T13:48:52.111Z,24.08
2023-05-07T13:53:53.614Z,24.67
2023-05-07T13:58:59.961Z,21.83
2023-05-07T14:04:02.195Z,19.42
2023-05-07T14:09:03.725Z,19.20
2023-05-07T14:14:05.147Z,17.67
2023-05-07T14:19:06.665Z,25.20
2023-05-07T14:24:09.367Z,22.73
2023-05-07T14:29:10.744Z,23.95
2023-05-07T14:34:12.252Z,23.60
2023-05-07T14:39:14.427Z,21.45
2023-05-07T14:44:16.331Z,20.73
2023-05-07T14:49:18.209Z,17.65
2023-05-07T14:54:19.630Z,20.92
2023-05-07T14:59:22.210Z,16.98
2023-05-07T15:04:24.557Z,16.15
2023-05-07T15:09:25.977Z,18.55
2023-05-07T15:14:27.386Z,17.83
2023-05-07T15:19:30.363Z,18.50
2023-05-07T15:24:32.020Z,22.13
2023-05-07T15:29:33.493Z,20.27
2023-05-07T15:34:34.935Z,19.77
2023-05-07T15:39:36.460Z,21.23
2023-05-07T15:44:38.177Z,20.25
2023-05-07T15:49:39.607Z,19.98
2023-05-07T15:54:41.086Z,21.27
2023-05-07T15:59:42.583Z,17.23
2023-05-07T16:04:44.051Z,18.08
2023-05-07T16:09:45.826Z,17.10
2023-05-07T16:14:47.227Z,19.98
2023-05-07T16:19:50.387Z,15.18
2023-05-07T16:24:52.159Z,19.25
2023-05-07T16:29:53.634Z,19.38
2023-05-07T16:34:55.015Z,17.73
2023-05-07T16:40:00.745Z,19.80
2023-05-07T16:45:03.165Z,21.60
2023-05-07T16:50:05.922Z,18.95
2023-05-07T16:55:07.661Z,20.83
2023-05-07T17:00:09.509Z,21.85
2023-05-07T17:05:11.338Z,20.77
2023-05-07T17:10:12.993Z,22.85
2023-05-07T17:15:14.634Z,21.63
2023-05-07T17:20:16.291Z,22.35
2023-05-07T17:25:19.357Z,24.70
2023-05-07T17:30:20.848Z,22.90
2023-05-07T17:35:22.389Z,22.80
2023-05-07T17:40:23.881Z,26.10
2023-05-07T17:45:25.387Z,27.15
2023-05-07T17:50:27.021Z,25.08
2023-05-07T17:55:29.392Z,24.20
2023-05-07T18:00:30.883Z,23.80
2023-05-07T18:05:32.407Z,27.20
2023-05-07T18:10:33.928Z,25.95
2023-05-07T18:15:35.396Z,21.27
2023-05-07T18:20:36.792Z,19.17
2023-05-07T18:25:38.211Z,18.02
2023-05-07T18:30:39.641Z,17.30
2023-05-07T18:35:41.036Z,14.80
2023-05-07T18:40:44.130Z,15.85
2023-05-07T18:45:48.730Z,14.88
2023-05-07T18:50:50.536Z,15.35
2023-05-07T18:55:52.378Z,12.70
2023-05-07T19:00:53.997Z,11.52
2023-05-07T19:05:56.600Z,14.85
2023-05-07T19:10:58.517Z,15.23
2023-05-07T19:16:00.102Z,15.40
2023-05-07T19:21:01.885Z,12.23
2023-05-07T19:26:03.385Z,13.93
2023-05-07T19:31:05.690Z,14.32
2023-05-07T19:36:07.297Z,15.93
2023-05-07T19:41:09.268Z,14.07
2023-05-07T19:46:11.230Z,16.27
2023-05-07T19:51:13.406Z,13.45
2023-05-07T19:56:15.934Z,13.68
2023-05-07T20:01:17.639Z,14.70
2023-05-07T20:06:19.546Z,15.07
2023-05-07T20:11:21.670Z,13.60
2023-05-07T20:16:23.302Z,14.45
2023-05-07T20:21:24.745Z,12.77
2023-05-07T20:26:26.821Z,12.15
2023-05-07T20:31:28.285Z,14.02
2023-05-07T20:36:29.864Z,12.52
2023-05-07T20:41:31.334Z,13.98
2023-05-07T20:46:32.848Z,13.93
2023-05-07T20:51:34.664Z,14.25
2023-05-07T20:56:36.145Z,15.25
2023-05-07T21:01:37.785Z,11.18
2023-05-07T21:06:39.220Z,14.20
2023-05-07T21:11:40.641Z,16.00
2023-05-07T21:16:43.090Z,11.95
2023-05-07T21:21:44.601Z,15.57
2023-05-07T21:26:46.036Z,18.50
2023-05-07T21:31:47.702Z,15.70
2023-05-07T21:36:49.138Z,13.95
2023-05-07T21:41:50.586Z,17.45
2023-05-07T21:46:52.044Z,19.98
2023-05-07T21:51:53.719Z,20.42
2023-05-07T21:56:55.095Z,20.17
2023-05-07T22:01:56.573Z,18.30
2023-05-07T22:06:58.098Z,21.05
2023-05-07T22:11:59.525Z,24.80
2023-05-07T22:17:01.040Z,21.00
2023-05-07T22:22:02.497Z,24.20
2023-05-07T22:27:03.958Z,25.52
2023-05-07T22:32:05.600Z,28.20
2023-05-07T22:37:07.049Z,24.80
2023-05-07T22:42:08.487Z,28.15
2023-05-07T22:47:10.006Z,25.90
2023-05-07T22:52:11.545Z,22.08
2023-05-07T22:57:12.989Z,22.77
2023-05-07T23:02:14.511Z,22.17
2023-05-07T23:07:15.897Z,23.42
2023-05-07T23:12:17.292Z,20.58
2023-05-07T23:17:18.743Z,19.20
2023-05-07T23:22:21.411Z,18.80
2023-05-07T23:27:22.812Z,21.65
2023-05-07T23:32:24.369Z,23.50
2023-05-07T23:37:25.961Z,21.60
2023-05-07T23:42:28.459Z,23.15
2023-05-07T23:47:30.477Z,22.45
2023-05-07T23:52:31.925Z,21.25
2023-05-07T23:57:33.331Z,20.70
